Time;durP1;ratioP1;P1;durP2;ratioP2;P2;SDS_P1;SDS_P2;PMS_P1;PMS_P2;Temp;Humidity;BMP_temperature;BMP_pressure;BME280_temperature;BME280_humidity;BME280_pressure;Samples;Min_cycle;Max_cycle;Signal;HPM_P1;HPM_P2
2023/04/19 00:00:53;;;;;;;94.90;66.97;;;11.50;99.90;;;;;;5046460;28;20080;-76
2023/04/19 00:03:23;;;;;;;91.28;65.15;;;11.60;99.90;;;;;;5035930;28;20029;-78
2023/04/19 00:05:52;;;;;;;90.47;65.00;;;11.60;99.90;;;;;;5041840;28;20049;-75
2023/04/19 00:08:20;;;;;;;87.63;61.85;;;11.70;99.90;;;;;;5034646;28;20670;-76
2023/04/19 00:10:47;;;;;;;88.10;64.20;;;11.70;99.90;;;;;;5015880;28;20077;-76
2023/04/19 00:13:15;;;;;;;89.10;63.65;;;11.80;99.90;;;;;;5033996;28;20041;-76
2023/04/19 00:15:42;;;;;;;87.63;63.55;;;11.80;99.90;;;;;;5033500;28;20053;-75
2023/04/19 00:18:11;;;;;;;88.35;66.55;;;11.80;99.90;;;;;;5032430;28;20037;-76
2023/04/19 00:20:39;;;;;;;97.75;68.60;;;11.80;99.90;;;;;;5032187;28;21131;-76
2023/04/19 00:23:07;;;;;;;92.90;65.88;;;11.80;99.90;;;;;;5033019;28;20041;-76
2023/04/19 00:25:34;;;;;;;80.55;59.35;;;11.80;99.90;;;;;;5036576;28;20037;-76
2023/04/19 00:28:02;;;;;;;85.60;63.10;;;11.70;99.90;;;;;;5036023;28;20033;-78
2023/04/19 00:30:30;;;;;;;81.95;60.97;;;11.70;99.90;;;;;;5034679;28;20095;-76
2023/04/19 00:32:58;;;;;;;87.60;59.00;;;11.80;99.90;;;;;;5033751;28;20042;-75
2023/04/19 00:35:27;;;;;;;83.82;56.38;;;11.70;99.90;;;;;;5037467;28;20044;-77
2023/04/19 00:37:55;;;;;;;74.55;53.95;;;11.70;99.90;;;;;;5039973;28;20072;-77
2023/04/19 00:40:22;;;;;;;74.28;53.53;;;11.70;99.90;;;;;;5038900;28;20047;-77
2023/04/19 00:42:50;;;;;;;72.85;49.08;;;11.70;99.90;;;;;;5020023;28;20045;-76
2023/04/19 00:45:18;;;;;;;63.58;47.42;;;11.70;99.90;;;;;;5019433;28;20041;-76
2023/04/19 00:47:46;;;;;;;63.78;44.75;;;11.70;99.90;;;;;;5020453;28;20037;-76
2023/04/19 00:50:13;;;;;;;60.13;44.70;;;11.70;99.90;;;;;;5039650;28;20141;-75
2023/04/19 00:52:42;;;;;;;57.15;43.30;;;11.60;99.90;;;;;;5037073;28;20049;-76
2023/04/19 00:55:10;;;;;;;60.50;43.35;;;11.60;99.90;;;;;;5031002;28;20257;-76
2023/04/19 00:57:38;;;;;;;56.63;42.65;;;11.60;99.90;;;;;;5030819;28;20044;-77
2023/04/19 01:00:08;;;;;;;54.67;42.35;;;11.60;99.90;;;;;;5013130;28;20046;-77
2023/04/19 01:02:37;;;;;;;51.55;40.63;;;11.60;99.90;;;;;;5012637;28;20048;-77
2023/04/19 01:05:05;;;;;;;49.30;39.78;;;11.60;99.90;;;;;;5030982;28;20053;-76
2023/04/19 01:07:34;;;;;;;49.45;40.45;;;11.60;99.90;;;;;;5031491;28;20688;-77
2023/04/19 01:10:03;;;;;;;51.20;39.40;;;11.70;99.90;;;;;;5014232;28;20042;-76
2023/04/19 01:12:30;;;;;;;47.92;37.92;;;11.70;99.90;;;;;;5029807;28;20037;-76
2023/04/19 01:14:58;;;;;;;46.30;37.45;;;11.60;99.90;;;;;;5029986;28;20099;-76
2023/04/19 01:17:27;;;;;;;46.85;35.60;;;11.60;99.90;;;;;;5030270;28;20044;-78
2023/04/19 01:20:00;;;;;;;47.78;38.28;;;11.60;99.90;;;;;;5013871;28;20420;-77
2023/04/19 01:22:30;;;;;;;45.78;37.03;;;11.60;99.90;;;;;;5012213;28;20038;-77
2023/04/19 01:24:58;;;;;;;45.97;35.80;;;11.60;99.90;;;;;;5035717;28;20039;-77
2023/04/19 01:27:26;;;;;;;47.17;37.63;;;11.70;99.90;;;;;;5030446;28;20034;-75
2023/04/19 01:29:53;;;;;;;49.72;37.40;;;11.60;99.90;;;;;;5013156;28;20060;-77
2023/04/19 01:32:20;;;;;;;44.55;35.88;;;11.60;99.90;;;;;;5029779;28;20038;-77
2023/04/19 01:34:51;;;;;;;43.97;35.20;;;11.60;99.90;;;;;;5014514;28;20042;-77
2023/04/19 01:37:19;;;;;;;44.33;35.80;;;11.60;99.90;;;;;;5013007;28;20137;-77
2023/04/19 01:39:48;;;;;;;47.50;36.17;;;11.70;99.90;;;;;;5028733;28;20061;-79
2023/04/19 01:42:15;;;;;;;47.75;37.15;;;11.70;99.90;;;;;;5030400;28;20050;-75
2023/04/19 01:44:45;;;;;;;40.20;34.30;;;11.70;99.90;;;;;;5022663;28;20051;-77
2023/04/19 01:47:12;;;;;;;44.65;36.42;;;11.70;99.90;;;;;;5043480;28;20046;-77
2023/04/19 01:49:40;;;;;;;45.13;34.38;;;11.70;99.90;;;;;;5011707;28;20041;-77
2023/04/19 01:52:11;;;;;;;46.03;34.40;;;11.70;99.90;;;;;;5028947;28;20049;-77
2023/04/19 01:54:38;;;;;;;46.15;35.15;;;11.70;99.90;;;;;;5031010;28;20053;-76
2023/04/19 01:57:08;;;;;;;50.90;37.95;;;11.70;99.90;;;;;;5013464;28;20044;-77
2023/04/19 01:59:36;;;;;;;53.38;38.63;;;11.70;99.90;;;;;;5029951;28;20048;-77
2023/04/19 02:02:06;;;;;;;48.08;36.63;;;11.60;99.90;;;;;;5027931;28;20041;-77
2023/04/19 02:04:34;;;;;;;45.83;34.38;;;11.70;99.90;;;;;;5044078;28;20042;-76
2023/04/19 02:07:02;;;;;;;44.10;33.72;;;11.70;99.90;;;;;;5012831;28;20080;-76
2023/04/19 02:09:29;;;;;;;46.22;35.78;;;11.70;99.90;;;;;;5035750;28;20033;-76
2023/04/19 02:11:57;;;;;;;42.38;34.00;;;11.70;99.90;;;;;;5029562;28;20129;-79
2023/04/19 02:14:26;;;;;;;41.50;32.53;;;11.70;99.90;;;;;;5013323;28;20400;-76
2023/04/19 02:16:54;;;;;;;43.90;34.45;;;11.70;99.90;;;;;;5035949;28;20061;-76
2023/04/19 02:19:22;;;;;;;46.38;32.40;;;11.70;99.90;;;;;;5035347;28;20041;-77
2023/04/19 02:21:52;;;;;;;47.17;34.35;;;11.60;99.90;;;;;;5031657;28;20054;-76
2023/04/19 02:24:20;;;;;;;40.35;32.42;;;11.60;99.90;;;;;;5012290;28;20521;-77
2023/04/19 02:26:48;;;;;;;44.17;34.03;;;11.60;99.90;;;;;;5028615;28;20037;-79
2023/04/19 02:29:19;;;;;;;46.22;31.73;;;11.60;99.90;;;;;;5028838;28;20068;-77
2023/04/19 02:31:49;;;;;;;39.88;32.00;;;11.60;99.90;;;;;;5011319;28;20111;-75
2023/04/19 02:34:18;;;;;;;37.63;32.22;;;11.60;99.90;;;;;;5039169;28;20046;-78
2023/04/19 02:36:47;;;;;;;40.15;31.95;;;11.60;99.90;;;;;;5033544;28;20049;-77
2023/04/19 02:39:15;;;;;;;41.15;31.67;;;11.70;99.90;;;;;;5013172;28;20315;-77
2023/04/19 02:41:45;;;;;;;40.08;31.65;;;11.70;99.90;;;;;;5027457;28;20049;-78
2023/04/19 02:44:14;;;;;;;39.53;31.85;;;11.80;99.90;;;;;;5012308;28;20052;-77
2023/04/19 02:46:50;;;;;;;39.00;31.83;;;11.80;99.90;;;;;;5011337;28;20072;-77
2023/04/19 02:49:21;;;;;;;39.78;32.00;;;11.80;99.90;;;;;;5014513;28;20045;-78
2023/04/19 02:51:50;;;;;;;39.45;31.63;;;11.80;99.90;;;;;;5033748;28;20332;-78
2023/04/19 02:54:18;;;;;;;43.05;33.78;;;11.80;99.90;;;;;;5033596;28;20045;-77
2023/04/19 02:56:46;;;;;;;47.05;34.38;;;11.80;99.90;;;;;;5031677;28;20037;-76
2023/04/19 02:59:15;;;;;;;44.55;34.28;;;11.80;99.90;;;;;;5045630;28;20129;-76
2023/04/19 03:01:44;;;;;;;47.58;35.33;;;11.80;99.90;;;;;;5044284;28;20049;-77
2023/04/19 03:04:13;;;;;;;52.78;37.20;;;11.80;99.90;;;;;;5034654;28;20065;-76
2023/04/19 03:06:43;;;;;;;47.78;37.85;;;11.90;99.90;;;;;;5028421;28;20520;-77
2023/04/19 03:09:11;;;;;;;49.03;37.70;;;11.90;99.90;;;;;;5024694;28;20088;-75
2023/04/19 03:11:38;;;;;;;49.63;38.75;;;11.90;99.90;;;;;;5031757;28;20053;-76
2023/04/19 03:14:05;;;;;;;57.17;42.63;;;11.90;99.90;;;;;;5017686;28;20436;-78
2023/04/19 03:16:39;;;;;;;59.67;48.30;;;11.90;99.90;;;;;;5013817;28;20132;-78
2023/04/19 03:19:07;;;;;;;69.25;55.35;;;11.90;99.90;;;;;;5015464;28;20041;-78
2023/04/19 03:21:41;;;;;;;65.70;53.05;;;11.90;99.90;;;;;;5012863;28;20042;-79
2023/04/19 03:24:09;;;;;;;58.70;44.85;;;11.90;99.90;;;;;;5012602;28;20400;-76
2023/04/19 03:26:41;;;;;;;48.00;38.17;;;11.90;99.90;;;;;;5012948;28;20042;-77
2023/04/19 03:29:09;;;;;;;46.97;38.00;;;11.90;99.90;;;;;;5014986;28;20048;-77
2023/04/19 03:31:40;;;;;;;50.05;37.13;;;11.80;99.90;;;;;;5020815;28;20034;-76
2023/04/19 03:34:11;;;;;;;47.70;36.00;;;11.80;99.90;;;;;;5030980;28;20053;-77
2023/04/19 03:36:44;;;;;;;44.38;36.05;;;11.90;99.90;;;;;;5032984;28;20050;-77
2023/04/19 03:39:11;;;;;;;44.88;34.95;;;11.80;99.90;;;;;;5048727;28;20045;-76
2023/04/19 03:41:41;;;;;;;46.90;36.30;;;11.90;99.90;;;;;;5016626;28;20066;-78
2023/04/19 03:44:41;;;;;;;44.45;34.88;;;11.90;99.90;;;;;;4989316;28;20057;-75
2023/04/19 03:47:10;;;;;;;46.78;35.00;;;11.90;99.90;;;;;;5027731;28;20058;-77
2023/04/19 03:49:43;;;;;;;43.40;35.35;;;11.90;99.90;;;;;;5012704;28;20402;-78
2023/04/19 03:52:12;;;;;;;45.63;34.05;;;11.90;99.90;;;;;;5015486;28;20049;-78
2023/04/19 03:54:39;;;;;;;47.47;35.28;;;11.90;99.90;;;;;;5013926;28;20098;-76
2023/04/19 03:57:14;;;;;;;49.00;35.78;;;11.90;99.90;;;;;;5010616;28;20050;-75
2023/04/19 03:59:41;;;;;;;48.95;36.15;;;11.90;99.90;;;;;;5012166;28;20120;-77
2023/04/19 04:02:10;;;;;;;48.88;36.13;;;11.90;99.90;;;;;;5011332;28;20042;-77
2023/04/19 04:04:50;;;;;;;50.40;36.95;;;11.90;99.90;;;;;;5012184;28;20042;-77
2023/04/19 04:07:20;;;;;;;45.13;35.47;;;11.90;99.90;;;;;;5011672;28;20061;-78
2023/04/19 04:09:47;;;;;;;47.03;35.97;;;12.00;99.90;;;;;;5011205;28;20078;-78
2023/04/19 04:12:16;;;;;;;47.17;36.67;;;12.00;99.90;;;;;;5011494;28;20099;-77
2023/04/19 04:14:43;;;;;;;50.25;36.45;;;12.00;99.90;;;;;;5010124;28;20050;-78
2023/04/19 04:17:12;;;;;;;51.05;37.42;;;12.00;99.90;;;;;;5010395;28;20781;-79
2023/04/19 04:19:42;;;;;;;51.80;37.92;;;12.00;99.90;;;;;;5011486;28;20073;-77
2023/04/19 04:22:10;;;;;;;54.92;38.05;;;12.00;99.90;;;;;;5027395;28;20137;-75
2023/04/19 04:24:43;;;;;;;52.90;39.00;;;12.00;99.90;;;;;;5012946;28;20045;-76
2023/04/19 04:27:21;;;;;;;55.17;38.67;;;12.00;99.90;;;;;;5009323;28;20134;-77
2023/04/19 04:29:55;;;;;;;50.97;38.10;;;12.00;99.90;;;;;;5012324;28;20042;-77
2023/04/19 04:32:25;;;;;;;55.05;39.45;;;12.00;99.90;;;;;;5026743;28;20643;-77
2023/04/19 04:34:58;;;;;;;55.70;39.63;;;12.00;99.90;;;;;;5035389;28;20109;-77
2023/04/19 04:37:39;;;;;;;50.58;38.33;;;12.00;99.90;;;;;;5018752;28;20560;-77
2023/04/19 04:40:09;;;;;;;56.30;38.58;;;12.00;99.90;;;;;;5011086;28;20069;-77
2023/04/19 04:42:37;;;;;;;54.88;38.30;;;12.00;99.90;;;;;;5009688;28;20108;-76
2023/04/19 04:45:06;;;;;;;67.60;42.88;;;11.90;99.90;;;;;;5039100;28;20057;-75
2023/04/19 04:47:36;;;;;;;66.65;44.53;;;12.00;99.90;;;;;;5044283;28;20041;-77
2023/04/19 04:50:07;;;;;;;51.05;35.88;;;11.90;99.90;;;;;;5022576;28;20490;-76
2023/04/19 04:52:35;;;;;;;53.95;38.72;;;11.90;99.90;;;;;;5011809;28;20041;-75
2023/04/19 04:55:11;;;;;;;56.95;40.83;;;11.90;99.90;;;;;;5010713;28;20062;-77
2023/04/19 04:57:43;;;;;;;68.68;45.25;;;11.90;99.90;;;;;;5013262;28;20037;-78
2023/04/19 05:00:17;;;;;;;59.80;43.08;;;11.90;99.90;;;;;;5008976;28;20119;-77
2023/04/19 05:02:54;;;;;;;57.03;40.88;;;12.00;99.90;;;;;;5010136;28;20536;-77
2023/04/19 05:05:24;;;;;;;50.35;37.35;;;12.00;99.90;;;;;;5009932;28;20141;-77
2023/04/19 05:07:51;;;;;;;47.00;35.05;;;12.00;99.90;;;;;;5010299;28;20052;-78
2023/04/19 05:10:20;;;;;;;43.13;33.85;;;12.00;99.90;;;;;;5008759;28;20041;-78
2023/04/19 05:12:48;;;;;;;43.72;33.83;;;12.00;99.90;;;;;;5008556;28;20486;-78
2023/04/19 05:15:16;;;;;;;44.92;38.13;;;12.00;99.90;;;;;;5008840;28;20077;-78
2023/04/19 05:17:51;;;;;;;44.92;36.42;;;12.00;99.90;;;;;;5012697;28;20092;-75
2023/04/19 05:20:21;;;;;;;36.28;32.10;;;12.00;99.90;;;;;;5011464;28;20050;-77
2023/04/19 05:22:58;;;;;;;37.67;29.95;;;12.00;99.90;;;;;;5010439;28;20129;-77
2023/04/19 05:25:27;;;;;;;33.55;27.40;;;12.00;99.90;;;;;;5010462;28;20041;-78
2023/04/19 05:27:56;;;;;;;31.73;25.80;;;12.00;99.90;;;;;;5010823;28;20044;-77
2023/04/19 05:30:24;;;;;;;37.53;28.98;;;12.00;99.90;;;;;;5009988;28;20084;-76
2023/04/19 05:32:52;;;;;;;37.75;29.63;;;12.00;99.90;;;;;;5010750;28;20096;-77
2023/04/19 05:35:20;;;;;;;40.28;32.53;;;12.10;99.90;;;;;;5013148;28;20457;-77
2023/04/19 05:37:47;;;;;;;43.10;32.72;;;12.10;99.90;;;;;;5011263;28;20401;-78
2023/04/19 05:40:15;;;;;;;38.50;32.65;;;12.10;99.90;;;;;;5010992;28;20034;-77
2023/04/19 05:42:44;;;;;;;40.72;33.67;;;12.10;99.90;;;;;;5014948;28;20138;-78
2023/04/19 05:45:14;;;;;;;41.97;32.58;;;12.10;99.90;;;;;;5023537;28;20041;-75
2023/04/19 05:47:42;;;;;;;42.38;32.75;;;12.20;99.90;;;;;;5026124;28;20150;-77
2023/04/19 05:50:25;;;;;;;50.00;35.72;;;12.20;99.90;;;;;;5013980;28;20484;-76
2023/04/19 05:53:12;;;;;;;38.67;31.00;;;12.20;99.90;;;;;;5010893;28;20121;-77
2023/04/19 05:55:40;;;;;;;41.90;33.50;;;12.30;99.90;;;;;;5008212;28;20045;-77
2023/04/19 05:58:09;;;;;;;47.75;35.17;;;12.20;99.90;;;;;;5009411;28;20041;-75
2023/04/19 06:00:37;;;;;;;46.83;34.80;;;12.30;99.90;;;;;;5009081;28;20047;-77
2023/04/19 06:03:10;;;;;;;44.00;32.53;;;12.30;99.90;;;;;;5009763;28;20092;-77
2023/04/19 06:05:39;;;;;;;37.28;29.48;;;12.30;99.90;;;;;;5011641;28;20068;-77
2023/04/19 06:08:08;;;;;;;33.70;27.50;;;12.40;99.90;;;;;;5010186;28;20056;-79
2023/04/19 06:10:36;;;;;;;34.22;25.65;;;12.50;99.90;;;;;;5009255;28;20057;-77
2023/04/19 06:13:04;;;;;;;30.98;23.80;;;12.60;99.90;;;;;;5009575;28;20601;-79
2023/04/19 06:15:33;;;;;;;29.92;24.60;;;12.70;99.90;;;;;;5008707;28;20042;-79
2023/04/19 06:18:01;;;;;;;29.52;23.27;;;12.80;99.90;;;;;;5009513;28;20560;-78
2023/04/19 06:20:28;;;;;;;32.03;20.83;;;12.80;99.90;;;;;;5009341;28;20044;-75
2023/04/19 06:22:56;;;;;;;35.83;24.13;;;12.80;99.90;;;;;;5009910;28;20064;-76
2023/04/19 06:25:24;;;;;;;24.95;18.02;;;12.70;99.90;;;;;;5013358;28;20042;-76
2023/04/19 06:27:51;;;;;;;22.70;17.45;;;12.70;99.90;;;;;;5010969;28;20041;-75
2023/04/19 06:30:19;;;;;;;28.55;17.75;;;12.60;99.90;;;;;;5010520;28;20102;-75
2023/04/19 06:32:48;;;;;;;25.27;19.60;;;12.70;99.90;;;;;;5019541;28;20113;-77
2023/04/19 06:35:16;;;;;;;27.67;17.92;;;12.60;99.90;;;;;;5011454;28;20044;-76
2023/04/19 06:37:45;;;;;;;23.42;17.95;;;12.60;99.90;;;;;;5012831;28;20061;-78
2023/04/19 06:40:13;;;;;;;24.33;16.88;;;12.60;99.90;;;;;;5010375;28;20034;-77
2023/04/19 06:42:40;;;;;;;24.17;18.52;;;12.60;99.90;;;;;;5008712;28;20132;-78
2023/04/19 06:45:09;;;;;;;23.67;15.20;;;12.70;99.90;;;;;;5017599;28;20053;-76
2023/04/19 06:47:36;;;;;;;22.48;13.90;;;12.70;99.90;;;;;;5009771;28;20057;-77
2023/04/19 06:50:06;;;;;;;19.92;14.93;;;12.80;99.90;;;;;;5027493;28;20498;-78
2023/04/19 06:52:33;;;;;;;27.50;20.58;;;12.70;99.90;;;;;;5027890;28;20053;-78
2023/04/19 06:55:01;;;;;;;19.33;14.48;;;12.80;99.90;;;;;;5023345;28;20113;-78
2023/04/19 06:57:29;;;;;;;23.95;16.20;;;12.70;99.90;;;;;;5013262;28;20042;-78
2023/04/19 06:59:57;;;;;;;26.00;17.65;;;12.70;99.90;;;;;;5010702;28;20037;-75
2023/04/19 07:02:25;;;;;;;18.95;14.40;;;12.60;99.90;;;;;;5012041;28;20066;-77
2023/04/19 07:04:53;;;;;;;20.45;14.52;;;12.70;99.90;;;;;;5020178;28;20113;-77
2023/04/19 07:07:22;;;;;;;24.55;17.15;;;12.70;99.90;;;;;;5030553;28;20064;-76
2023/04/19 07:09:49;;;;;;;26.80;18.30;;;12.80;99.90;;;;;;5023597;28;20050;-77
2023/04/19 07:12:17;;;;;;;29.55;21.10;;;12.90;99.90;;;;;;5009282;28;20237;-76
2023/04/19 07:14:44;;;;;;;22.27;17.55;;;13.00;99.90;;;;;;5032233;23;20046;-77
2023/04/19 07:17:12;;;;;;;25.63;16.77;;;13.10;99.90;;;;;;5056214;28;20060;-75
2023/04/19 07:19:41;;;;;;;20.20;16.25;;;13.20;99.90;;;;;;5058273;28;20044;-76
2023/04/19 07:22:08;;;;;;;55.35;40.90;;;13.20;99.90;;;;;;5040461;28;20052;-78
2023/04/19 07:24:39;;;;;;;60.83;50.08;;;13.40;99.90;;;;;;5046260;28;20044;-75
2023/04/19 07:27:06;;;;;;;49.35;40.28;;;13.50;99.90;;;;;;5045780;28;20029;-76
2023/04/19 07:29:35;;;;;;;25.67;16.73;;;13.60;99.90;;;;;;5047526;28;20504;-77
2023/04/19 07:32:03;;;;;;;22.38;16.63;;;13.50;99.90;;;;;;5047776;28;20113;-77
2023/04/19 07:34:30;;;;;;;25.83;17.40;;;13.40;99.90;;;;;;5046114;28;20048;-77
2023/04/19 07:36:57;;;;;;;27.55;18.88;;;13.30;99.90;;;;;;5047114;28;20044;-77
2023/04/19 07:39:25;;;;;;;28.30;20.52;;;13.30;99.90;;;;;;5047393;28;20104;-76
2023/04/19 07:41:53;;;;;;;27.60;19.83;;;13.20;99.90;;;;;;5047647;28;20037;-77
2023/04/19 07:44:21;;;;;;;27.98;21.13;;;13.30;99.90;;;;;;5047488;28;20064;-76
2023/04/19 07:46:48;;;;;;;30.05;20.65;;;13.40;99.90;;;;;;5047576;28;20037;-77
2023/04/19 07:49:16;;;;;;;26.15;18.65;;;13.60;99.90;;;;;;5047341;28;20053;-78
2023/04/19 07:51:43;;;;;;;25.65;18.02;;;13.60;99.90;;;;;;5047807;28;20480;-77
2023/04/19 07:54:11;;;;;;;22.52;19.13;;;13.80;99.90;;;;;;5050393;28;20052;-76
2023/04/19 07:56:38;;;;;;;29.33;19.27;;;13.90;99.90;;;;;;5051442;28;20041;-77
2023/04/19 07:59:07;;;;;;;25.38;18.60;;;13.90;99.90;;;;;;5050879;28;20452;-76
2023/04/19 08:01:35;;;;;;;26.38;17.63;;;13.90;99.90;;;;;;5065702;28;20409;-73
2023/04/19 08:04:03;;;;;;;24.70;17.92;;;13.80;99.90;;;;;;5050580;28;20082;-77
2023/04/19 08:06:30;;;;;;;23.33;18.35;;;13.70;99.90;;;;;;5050141;28;20048;-76
2023/04/19 08:08:58;;;;;;;22.60;17.02;;;13.60;99.90;;;;;;5050792;28;20037;-76
2023/04/19 08:11:25;;;;;;;25.08;17.67;;;13.60;99.90;;;;;;5050972;28;20036;-75
2023/04/19 08:13:52;;;;;;;25.58;19.50;;;13.60;99.90;;;;;;5051634;28;20096;-77
2023/04/19 08:16:21;;;;;;;27.25;21.00;;;13.50;99.90;;;;;;5050375;28;20055;-77
2023/04/19 08:18:50;;;;;;;25.67;20.20;;;13.50;99.90;;;;;;5051203;28;20041;-75
2023/04/19 08:21:18;;;;;;;30.23;21.95;;;13.60;99.90;;;;;;5049918;28;20037;-77
2023/04/19 08:23:46;;;;;;;36.42;23.02;;;13.60;99.90;;;;;;5050873;28;20061;-76
2023/04/19 08:26:13;;;;;;;31.48;23.05;;;13.70;99.90;;;;;;5050816;28;20045;-77
2023/04/19 08:28:40;;;;;;;36.92;24.80;;;13.70;99.90;;;;;;5050535;28;20042;-76
2023/04/19 08:31:09;;;;;;;35.67;26.27;;;13.70;99.90;;;;;;5049876;28;20057;-78
2023/04/19 08:33:37;;;;;;;43.10;30.98;;;13.70;99.90;;;;;;5050259;28;20064;-77
2023/04/19 08:36:05;;;;;;;41.72;29.08;;;13.80;99.90;;;;;;5050265;28;20041;-76
2023/04/19 08:38:33;;;;;;;45.58;32.30;;;14.00;99.90;;;;;;5049989;28;20058;-75
2023/04/19 08:41:01;;;;;;;47.08;32.33;;;14.10;99.90;;;;;;5050195;28;20512;-76
2023/04/19 08:43:32;;;;;;;42.08;31.42;;;14.00;99.90;;;;;;5050533;28;20117;-77
2023/04/19 08:45:59;;;;;;;41.50;30.60;;;14.10;99.90;;;;;;5050075;28;20057;-76
2023/04/19 08:48:28;;;;;;;40.17;29.25;;;14.10;99.90;;;;;;5050430;28;20387;-76
2023/04/19 08:50:59;;;;;;;40.25;28.98;;;14.00;99.90;;;;;;5049586;28;20041;-77
2023/04/19 08:53:28;;;;;;;36.97;29.05;;;14.00;99.90;;;;;;5050080;28;20037;-75
2023/04/19 08:55:58;;;;;;;39.03;28.40;;;14.00;99.90;;;;;;5050656;28;20040;-76
2023/04/19 08:58:28;;;;;;;36.63;26.02;;;14.00;99.90;;;;;;5049063;28;20051;-78
2023/04/19 09:00:56;;;;;;;38.05;26.05;;;14.00;99.90;;;;;;5049063;28;20053;-76
2023/04/19 09:03:24;;;;;;;39.35;28.00;;;14.00;99.90;;;;;;5049322;28;20484;-74
2023/04/19 09:05:52;;;;;;;38.83;27.13;;;14.10;99.90;;;;;;5049686;28;20216;-76
2023/04/19 09:08:26;;;;;;;39.75;27.42;;;14.30;99.90;;;;;;5050326;28;20041;-75
2023/04/19 09:10:55;;;;;;;35.17;25.63;;;14.40;99.90;;;;;;5049381;28;20410;-77
2023/04/19 09:13:23;;;;;;;42.92;28.50;;;14.70;99.90;;;;;;5049960;28;20037;-76
2023/04/19 09:15:50;;;;;;;38.75;25.48;;;14.90;99.90;;;;;;5049898;28;20133;-75
2023/04/19 09:18:18;;;;;;;40.03;27.63;;;15.20;99.90;;;;;;5048835;28;20139;-76
2023/04/19 09:20:46;;;;;;;41.80;28.98;;;15.50;99.90;;;;;;5047744;28;20495;-77
2023/04/19 09:23:15;;;;;;;39.38;26.00;;;15.70;99.90;;;;;;5048158;28;20044;-76
2023/04/19 09:25:53;;;;;;;42.15;26.05;;;15.80;99.90;;;;;;5047931;28;20128;-76
2023/04/19 09:28:21;;;;;;;35.22;22.83;;;15.90;99.90;;;;;;5048252;28;20052;-76
2023/04/19 09:30:49;;;;;;;37.60;22.92;;;15.80;99.90;;;;;;5048590;28;20041;-77
2023/04/19 09:33:32;;;;;;;43.85;27.95;;;15.60;99.90;;;;;;5046164;28;20055;-76
2023/04/19 09:36:01;;;;;;;42.35;30.27;;;15.50;99.90;;;;;;5048788;28;20045;-76
2023/04/19 09:38:28;;;;;;;40.80;28.33;;;15.40;99.90;;;;;;5046398;28;20053;-78
2023/04/19 09:41:09;;;;;;;41.72;29.27;;;15.40;99.90;;;;;;5049579;28;20033;-75
2023/04/19 09:43:36;;;;;;;35.85;27.27;;;15.20;99.90;;;;;;5048717;28;20037;-77
2023/04/19 09:46:04;;;;;;;40.60;27.00;;;15.40;99.90;;;;;;5048999;28;20037;-77
2023/04/19 09:48:31;;;;;;;33.92;24.73;;;15.80;99.90;;;;;;5048436;28;20093;-77
2023/04/19 09:51:01;;;;;;;26.58;18.83;;;16.30;99.90;;;;;;5047442;28;20072;-76
2023/04/19 09:53:32;;;;;;;20.42;15.10;;;16.80;99.90;;;;;;5047660;28;20047;-76
2023/04/19 09:56:01;;;;;;;23.23;15.15;;;17.40;99.90;;;;;;5047892;28;20111;-76
2023/04/19 09:58:30;;;;;;;24.38;15.32;;;18.00;99.90;;;;;;5045422;28;20057;-78
2023/04/19 10:00:59;;;;;;;19.90;13.80;;;18.30;99.90;;;;;;5047432;28;20044;-77
2023/04/19 10:03:30;;;;;;;18.52;11.27;;;18.50;99.90;;;;;;5045888;28;20136;-78
2023/04/19 10:05:57;;;;;;;16.48;11.02;;;17.90;99.90;;;;;;5047591;28;20500;-76
2023/04/19 10:08:27;;;;;;;20.17;14.38;;;17.40;99.90;;;;;;5048277;28;20045;-75
2023/04/19 10:10:55;;;;;;;15.88;11.77;;;17.50;99.90;;;;;;5047967;28;20426;-77
2023/04/19 10:13:23;;;;;;;18.95;11.32;;;17.80;99.90;;;;;;5047649;28;20041;-76
2023/04/19 10:15:52;;;;;;;19.35;11.60;;;18.20;99.90;;;;;;5046795;28;20072;-75
2023/04/19 10:18:20;;;;;;;16.02;11.07;;;18.50;99.90;;;;;;5046813;28;20064;-76
2023/04/19 10:20:52;;;;;;;21.50;14.40;;;18.30;99.90;;;;;;5047639;28;20059;-76
2023/04/19 10:23:21;;;;;;;14.32;10.13;;;18.40;99.90;;;;;;5047620;28;20052;-74
2023/04/19 10:25:49;;;;;;;14.00;9.38;;;18.10;99.90;;;;;;5047536;28;20041;-77
2023/04/19 10:28:16;;;;;;;12.73;8.77;;;18.20;99.90;;;;;;5048641;28;20041;-76
2023/04/19 10:30:57;;;;;;;18.52;10.55;;;18.10;99.90;;;;;;5046320;28;20041;-76
2023/04/19 10:33:26;;;;;;;14.77;10.10;;;18.20;99.90;;;;;;5050190;28;20041;-75
2023/04/19 10:35:57;;;;;;;17.50;9.27;;;18.10;99.90;;;;;;5061897;28;20109;-77
2023/04/19 10:38:37;;;;;;;13.50;9.68;;;18.00;99.80;;;;;;5062121;28;20110;-77
2023/04/19 10:41:10;;;;;;;17.60;11.95;;;18.00;99.90;;;;;;5047565;28;20044;-76
2023/04/19 10:43:39;;;;;;;13.10;8.93;;;17.80;99.90;;;;;;5047924;28;20112;-77
2023/04/19 10:46:16;;;;;;;14.43;9.48;;;17.50;99.90;;;;;;5048466;28;20401;-76
2023/04/19 10:48:54;;;;;;;16.95;10.77;;;17.50;99.50;;;;;;5047849;28;20049;-78
2023/04/19 10:51:23;;;;;;;15.23;11.80;;;17.30;95.90;;;;;;5046163;28;20403;-77
2023/04/19 10:53:56;;;;;;;15.52;11.30;;;16.80;91.70;;;;;;5047776;28;20086;-75
2023/04/19 10:56:57;;;;;;;16.08;11.40;;;16.80;93.80;;;;;;5047060;28;20036;-77
2023/04/19 10:59:24;;;;;;;31.63;21.73;;;16.40;99.90;;;;;;5046863;28;20049;-78
2023/04/19 11:01:55;;;;;;;24.08;15.70;;;16.30;99.90;;;;;;5046398;28;20045;-78
2023/04/19 11:04:37;;;;;;;19.60;15.60;;;15.80;99.90;;;;;;5045158;28;20592;-77
2023/04/19 11:07:06;;;;;;;22.02;15.98;;;15.20;99.90;;;;;;5047556;28;20045;-77
2023/04/19 11:09:35;;;;;;;19.73;15.15;;;14.80;99.90;;;;;;5046837;28;20056;-76
2023/04/19 11:12:07;;;;;;;14.90;11.73;;;14.60;99.90;;;;;;5046611;28;20049;-77
2023/04/19 11:14:37;;;;;;;18.42;12.63;;;14.70;99.90;;;;;;5047071;28;20044;-78
2023/04/19 11:17:15;;;;;;;17.25;11.07;;;14.80;99.90;;;;;;5047519;28;20052;-77
2023/04/19 11:19:44;;;;;;;12.68;9.68;;;14.90;99.90;;;;;;5046962;28;20106;-78
2023/04/19 11:22:12;;;;;;;15.95;11.02;;;15.30;99.90;;;;;;5046348;28;20045;-76
2023/04/19 11:24:46;;;;;;;14.52;11.50;;;15.60;99.90;;;;;;5047672;28;20160;-75
2023/04/19 11:27:14;;;;;;;13.43;10.07;;;15.70;99.90;;;;;;5047720;28;20079;-76
2023/04/19 11:29:41;;;;;;;12.23;9.05;;;15.90;99.90;;;;;;5051453;28;20048;-74
2023/04/19 11:32:10;;;;;;;19.60;12.48;;;16.00;99.90;;;;;;5051750;28;20051;-75
2023/04/19 11:34:38;;;;;;;23.40;17.73;;;15.80;99.90;;;;;;5049644;28;20045;-76
2023/04/19 11:37:06;;;;;;;15.48;11.23;;;16.00;99.90;;;;;;5050417;28;20045;-77
2023/04/19 11:39:33;;;;;;;14.13;8.18;;;16.50;99.90;;;;;;5051307;28;20151;-76
2023/04/19 11:42:02;;;;;;;13.75;8.25;;;16.70;99.90;;;;;;5048847;28;20484;-75
2023/04/19 11:44:29;;;;;;;10.75;7.78;;;16.90;99.90;;;;;;5050229;28;20045;-76
2023/04/19 11:47:01;;;;;;;15.98;8.27;;;17.20;99.90;;;;;;5051135;28;20079;-74
2023/04/19 11:49:32;;;;;;;13.43;9.85;;;17.60;99.60;;;;;;5049517;28;20045;-75
2023/04/19 11:52:01;;;;;;;12.15;8.30;;;17.80;99.90;;;;;;5048731;28;20523;-77
2023/04/19 11:54:28;;;;;;;11.20;6.60;;;18.00;97.40;;;;;;5050233;28;20059;-77
2023/04/19 11:57:00;;;;;;;10.75;6.18;;;17.70;93.10;;;;;;5050935;28;20033;-77
2023/04/19 11:59:28;;;;;;;8.93;5.85;;;17.50;91.80;;;;;;5049036;28;20075;-76
2023/04/19 12:01:56;;;;;;;7.63;5.95;;;17.30;92.10;;;;;;5049762;28;20040;-75
2023/04/19 12:04:23;;;;;;;13.30;6.70;;;17.30;93.70;;;;;;5048992;28;20041;-76
2023/04/19 12:06:59;;;;;;;12.02;8.60;;;17.40;94.40;;;;;;5049817;28;20041;-76
2023/04/19 12:09:27;;;;;;;;;;;17.40;92.40;;;;;;5050809;28;20071;-77
2023/04/19 12:11:54;;;;;;;11.77;8.63;;;17.50;91.50;;;;;;5049008;28;19920;-75
2023/04/19 12:14:25;;;;;;;17.02;10.85;;;17.50;90.20;;;;;;5050269;28;20044;-76
2023/04/19 12:17:10;;;;;;;13.50;8.60;;;17.60;90.90;;;;;;5050490;28;20080;-76
2023/04/19 12:19:43;;;;;;;14.70;9.50;;;17.70;91.50;;;;;;5050028;28;20045;-77
2023/04/19 12:22:19;;;;;;;18.58;9.20;;;17.60;93.30;;;;;;5049979;28;20270;-76
2023/04/19 12:24:46;;;;;;;;;;;17.50;92.50;;;;;;5050025;28;20203;-76
2023/04/19 12:27:18;;;;;;;12.63;7.50;;;17.60;92.60;;;;;;5049896;28;19921;-77
2023/04/19 12:29:45;;;;;;;9.43;7.03;;;17.50;91.80;;;;;;5050280;28;20044;-77
2023/04/19 12:32:14;;;;;;;13.32;9.30;;;17.20;94.10;;;;;;5050358;28;20053;-74
2023/04/19 12:34:41;;;;;;;10.65;7.68;;;17.00;96.40;;;;;;5049638;28;20131;-77
2023/04/19 12:37:09;;;;;;;15.95;8.02;;;17.10;99.80;;;;;;5049121;28;20115;-76
2023/04/19 12:39:39;;;;;;;10.32;6.60;;;17.50;98.30;;;;;;5049393;28;20037;-75